Terminal Aerodrome Forecast
Issued by NWS

Home | Current Version | Previous Version | Text Only | Print | Product List | Glossary On
Versions: 1 2 3 4 5 6 7 8 9 10 11 12 13 14 15 16 17 18 19 20 21 22 23 24 25 26 27 28
000
FTUS46 KLOX 222300
TAFLAX
TAF
KLAX 222339Z 2300/2406 26012KT P6SM FEW012
     FM230300 27008KT P6SM SKC
     FM230700 VRB03KT P6SM SKC
     FM230900 VRB03KT 6SM BR OVC008
     FM231600 VRB03KT P6SM BKN010
     FM231900 27009KT P6SM FEW015
     FM232200 25012KT P6SM SKC
     FM240300 25009KT P6SM SKC=

USA.gov is the U.S. government's official web portal to all federal, state and local government web resources and services.